sensor_id;sensor_type;location;lat;lon;timestamp;P1;durP1;ratioP1;P2;durP2;ratioP2
5650;SDS011;40241;52.684;9.758;2023-03-05T00:01:38;4.63;;;1.70;;
5650;SDS011;40241;52.684;9.758;2023-03-05T00:04:04;4.50;;;1.83;;
5650;SDS011;40241;52.684;9.758;2023-03-05T00:06:34;2.00;;;1.20;;
5650;SDS011;40241;52.684;9.758;2023-03-05T00:08:59;6.30;;;1.80;;
5650;SDS011;40241;52.684;9.758;2023-03-05T00:11:26;3.20;;;1.30;;
5650;SDS011;40241;52.684;9.758;2023-03-05T00:13:54;2.70;;;2.03;;
5650;SDS011;40241;52.684;9.758;2023-03-05T00:16:20;4.03;;;1.43;;
5650;SDS011;40241;52.684;9.758;2023-03-05T00:18:46;1.33;;;1.17;;
5650;SDS011;40241;52.684;9.758;2023-03-05T00:23:48;3.77;;;1.50;;
5650;SDS011;40241;52.684;9.758;2023-03-05T00:26:17;2.80;;;1.60;;
5650;SDS011;40241;52.684;9.758;2023-03-05T00:28:44;3.17;;;1.50;;
5650;SDS011;40241;52.684;9.758;2023-03-05T00:31:14;2.20;;;1.70;;
5650;SDS011;40241;52.684;9.758;2023-03-05T00:33:53;3.33;;;1.80;;
5650;SDS011;40241;52.684;9.758;2023-03-05T00:36:19;5.30;;;1.80;;
5650;SDS011;40241;52.684;9.758;2023-03-05T00:38:45;4.23;;;1.23;;
5650;SDS011;40241;52.684;9.758;2023-03-05T00:41:10;4.50;;;1.57;;
5650;SDS011;40241;52.684;9.758;2023-03-05T00:43:36;8.63;;;1.93;;
5650;SDS011;40241;52.684;9.758;2023-03-05T00:46:01;0.90;;;0.90;;
5650;SDS011;40241;52.684;9.758;2023-03-05T00:48:26;4.93;;;1.40;;
5650;SDS011;40241;52.684;9.758;2023-03-05T00:50:52;3.83;;;0.93;;
5650;SDS011;40241;52.684;9.758;2023-03-05T00:53:17;5.77;;;1.10;;
5650;SDS011;40241;52.684;9.758;2023-03-05T00:55:43;5.10;;;1.17;;
5650;SDS011;40241;52.684;9.758;2023-03-05T00:58:08;4.13;;;1.53;;
5650;SDS011;40241;52.684;9.758;2023-03-05T01:00:35;2.07;;;0.97;;
5650;SDS011;40241;52.684;9.758;2023-03-05T01:03:01;3.17;;;1.10;;
5650;SDS011;40241;52.684;9.758;2023-03-05T01:05:26;4.03;;;1.03;;
5650;SDS011;40241;52.684;9.758;2023-03-05T01:07:52;3.60;;;1.13;;
5650;SDS011;40241;52.684;9.758;2023-03-05T01:10:18;4.83;;;0.93;;
5650;SDS011;40241;52.684;9.758;2023-03-05T01:12:44;4.70;;;1.17;;
5650;SDS011;40241;52.684;9.758;2023-03-05T01:15:09;3.70;;;1.30;;
5650;SDS011;40241;52.684;9.758;2023-03-05T01:17:34;7.43;;;0.80;;
5650;SDS011;40241;52.684;9.758;2023-03-05T01:20:00;3.33;;;1.27;;
5650;SDS011;40241;52.684;9.758;2023-03-05T01:22:25;1.93;;;0.87;;
5650;SDS011;40241;52.684;9.758;2023-03-05T01:24:50;2.70;;;0.93;;
5650;SDS011;40241;52.684;9.758;2023-03-05T01:27:16;6.00;;;0.97;;
5650;SDS011;40241;52.684;9.758;2023-03-05T01:29:41;3.30;;;0.63;;
5650;SDS011;40241;52.684;9.758;2023-03-05T01:32:06;3.53;;;0.83;;
5650;SDS011;40241;52.684;9.758;2023-03-05T01:34:32;2.20;;;0.77;;
5650;SDS011;40241;52.684;9.758;2023-03-05T01:36:57;2.80;;;1.00;;
5650;SDS011;40241;52.684;9.758;2023-03-05T01:39:22;6.70;;;0.87;;
5650;SDS011;40241;52.684;9.758;2023-03-05T01:41:47;2.70;;;0.97;;
5650;SDS011;40241;52.684;9.758;2023-03-05T01:44:18;4.57;;;1.23;;
5650;SDS011;40241;52.684;9.758;2023-03-05T01:46:46;5.73;;;1.53;;
5650;SDS011;40241;52.684;9.758;2023-03-05T01:49:16;3.13;;;1.10;;
5650;SDS011;40241;52.684;9.758;2023-03-05T01:54:25;8.00;;;1.57;;
5650;SDS011;40241;52.684;9.758;2023-03-05T01:56:55;1.73;;;0.80;;
5650;SDS011;40241;52.684;9.758;2023-03-05T01:59:24;6.90;;;1.30;;
5650;SDS011;40241;52.684;9.758;2023-03-05T02:01:52;2.67;;;1.07;;
5650;SDS011;40241;52.684;9.758;2023-03-05T02:04:19;5.40;;;1.20;;
5650;SDS011;40241;52.684;9.758;2023-03-05T02:06:47;4.07;;;1.00;;
5650;SDS011;40241;52.684;9.758;2023-03-05T02:09:14;4.03;;;1.20;;
5650;SDS011;40241;52.684;9.758;2023-03-05T02:11:40;3.80;;;0.80;;
5650;SDS011;40241;52.684;9.758;2023-03-05T02:14:05;4.57;;;1.23;;
5650;SDS011;40241;52.684;9.758;2023-03-05T02:16:32;4.60;;;1.13;;
5650;SDS011;40241;52.684;9.758;2023-03-05T02:19:04;3.23;;;1.27;;
5650;SDS011;40241;52.684;9.758;2023-03-05T02:21:38;2.87;;;0.90;;
5650;SDS011;40241;52.684;9.758;2023-03-05T02:24:06;4.33;;;1.20;;
5650;SDS011;40241;52.684;9.758;2023-03-05T02:26:35;6.40;;;1.40;;
5650;SDS011;40241;52.684;9.758;2023-03-05T02:29:00;6.47;;;1.30;;
5650;SDS011;40241;52.684;9.758;2023-03-05T02:31:29;5.53;;;1.20;;
5650;SDS011;40241;52.684;9.758;2023-03-05T02:33:55;1.87;;;0.90;;
5650;SDS011;40241;52.684;9.758;2023-03-05T02:36:20;3.80;;;1.10;;
5650;SDS011;40241;52.684;9.758;2023-03-05T02:38:46;6.37;;;1.30;;
5650;SDS011;40241;52.684;9.758;2023-03-05T02:41:13;4.33;;;1.13;;
5650;SDS011;40241;52.684;9.758;2023-03-05T02:43:38;3.80;;;0.90;;
5650;SDS011;40241;52.684;9.758;2023-03-05T02:46:04;3.23;;;1.03;;
5650;SDS011;40241;52.684;9.758;2023-03-05T02:48:29;5.13;;;1.10;;
5650;SDS011;40241;52.684;9.758;2023-03-05T02:50:55;4.93;;;1.07;;
5650;SDS011;40241;52.684;9.758;2023-03-05T02:53:20;3.07;;;0.90;;
5650;SDS011;40241;52.684;9.758;2023-03-05T02:55:47;4.50;;;1.27;;
5650;SDS011;40241;52.684;9.758;2023-03-05T02:58:14;2.60;;;1.00;;
5650;SDS011;40241;52.684;9.758;2023-03-05T03:00:40;3.33;;;1.20;;
5650;SDS011;40241;52.684;9.758;2023-03-05T03:03:05;1.13;;;0.83;;
5650;SDS011;40241;52.684;9.758;2023-03-05T03:05:31;3.53;;;1.00;;
5650;SDS011;40241;52.684;9.758;2023-03-05T03:07:56;1.70;;;1.00;;
5650;SDS011;40241;52.684;9.758;2023-03-05T03:10:22;2.87;;;1.17;;
5650;SDS011;40241;52.684;9.758;2023-03-05T03:12:47;2.80;;;1.20;;
5650;SDS011;40241;52.684;9.758;2023-03-05T03:15:13;2.87;;;1.00;;
5650;SDS011;40241;52.684;9.758;2023-03-05T03:17:39;2.20;;;1.20;;
5650;SDS011;40241;52.684;9.758;2023-03-05T03:20:06;3.27;;;1.27;;
5650;SDS011;40241;52.684;9.758;2023-03-05T03:22:34;2.57;;;1.53;;
5650;SDS011;40241;52.684;9.758;2023-03-05T03:24:59;2.27;;;1.40;;
5650;SDS011;40241;52.684;9.758;2023-03-05T03:27:25;1.70;;;1.20;;
5650;SDS011;40241;52.684;9.758;2023-03-05T03:29:50;3.10;;;1.30;;
5650;SDS011;40241;52.684;9.758;2023-03-05T03:32:16;2.33;;;1.00;;
5650;SDS011;40241;52.684;9.758;2023-03-05T03:34:41;4.77;;;1.50;;
5650;SDS011;40241;52.684;9.758;2023-03-05T03:37:06;2.97;;;1.33;;
5650;SDS011;40241;52.684;9.758;2023-03-05T03:39:32;3.57;;;1.20;;
5650;SDS011;40241;52.684;9.758;2023-03-05T03:41:58;3.37;;;1.40;;
5650;SDS011;40241;52.684;9.758;2023-03-05T03:44:23;3.23;;;1.33;;
5650;SDS011;40241;52.684;9.758;2023-03-05T03:46:49;2.53;;;1.53;;
5650;SDS011;40241;52.684;9.758;2023-03-05T03:49:17;1.40;;;1.30;;
5650;SDS011;40241;52.684;9.758;2023-03-05T03:51:45;3.00;;;1.33;;
5650;SDS011;40241;52.684;9.758;2023-03-05T03:54:12;2.40;;;1.30;;
5650;SDS011;40241;52.684;9.758;2023-03-05T03:56:38;2.40;;;1.47;;
5650;SDS011;40241;52.684;9.758;2023-03-05T03:59:03;3.90;;;1.80;;
5650;SDS011;40241;52.684;9.758;2023-03-05T04:01:28;2.90;;;1.60;;
5650;SDS011;40241;52.684;9.758;2023-03-05T04:03:54;7.70;;;1.53;;
5650;SDS011;40241;52.684;9.758;2023-03-05T04:06:19;3.93;;;1.67;;
5650;SDS011;40241;52.684;9.758;2023-03-05T04:08:45;5.20;;;2.17;;
5650;SDS011;40241;52.684;9.758;2023-03-05T04:11:10;3.40;;;1.60;;
5650;SDS011;40241;52.684;9.758;2023-03-05T04:13:35;5.87;;;1.93;;
5650;SDS011;40241;52.684;9.758;2023-03-05T04:16:01;2.60;;;2.20;;
5650;SDS011;40241;52.684;9.758;2023-03-05T04:18:26;2.70;;;1.90;;
5650;SDS011;40241;52.684;9.758;2023-03-05T04:20:52;2.20;;;1.67;;
5650;SDS011;40241;52.684;9.758;2023-03-05T04:23:17;2.70;;;1.93;;
5650;SDS011;40241;52.684;9.758;2023-03-05T04:25:42;4.03;;;2.20;;
5650;SDS011;40241;52.684;9.758;2023-03-05T04:28:08;4.33;;;1.97;;
5650;SDS011;40241;52.684;9.758;2023-03-05T04:30:33;6.40;;;2.37;;
5650;SDS011;40241;52.684;9.758;2023-03-05T04:32:59;3.80;;;2.37;;
5650;SDS011;40241;52.684;9.758;2023-03-05T04:35:24;3.20;;;2.03;;
5650;SDS011;40241;52.684;9.758;2023-03-05T04:37:49;2.83;;;1.93;;
5650;SDS011;40241;52.684;9.758;2023-03-05T04:40:15;2.47;;;1.87;;
5650;SDS011;40241;52.684;9.758;2023-03-05T04:42:41;1.77;;;1.67;;
5650;SDS011;40241;52.684;9.758;2023-03-05T04:45:07;3.10;;;2.40;;
5650;SDS011;40241;52.684;9.758;2023-03-05T04:47:32;2.10;;;1.40;;
5650;SDS011;40241;52.684;9.758;2023-03-05T04:49:58;2.43;;;2.27;;
5650;SDS011;40241;52.684;9.758;2023-03-05T04:52:23;1.73;;;1.63;;
5650;SDS011;40241;52.684;9.758;2023-03-05T04:54:49;3.30;;;1.60;;
5650;SDS011;40241;52.684;9.758;2023-03-05T04:57:15;2.03;;;1.90;;
5650;SDS011;40241;52.684;9.758;2023-03-05T04:59:40;2.00;;;1.63;;
5650;SDS011;40241;52.684;9.758;2023-03-05T05:02:06;6.73;;;2.00;;
5650;SDS011;40241;52.684;9.758;2023-03-05T05:04:31;5.53;;;1.87;;
5650;SDS011;40241;52.684;9.758;2023-03-05T05:06:57;4.10;;;1.83;;
5650;SDS011;40241;52.684;9.758;2023-03-05T05:09:23;3.60;;;1.70;;
5650;SDS011;40241;52.684;9.758;2023-03-05T05:11:49;1.80;;;1.57;;
5650;SDS011;40241;52.684;9.758;2023-03-05T05:14:14;2.73;;;2.13;;
5650;SDS011;40241;52.684;9.758;2023-03-05T05:16:40;3.80;;;2.03;;
5650;SDS011;40241;52.684;9.758;2023-03-05T05:19:05;1.73;;;1.50;;
5650;SDS011;40241;52.684;9.758;2023-03-05T05:21:32;1.80;;;1.70;;
5650;SDS011;40241;52.684;9.758;2023-03-05T05:23:58;2.53;;;1.60;;
5650;SDS011;40241;52.684;9.758;2023-03-05T05:26:23;3.57;;;2.00;;
5650;SDS011;40241;52.684;9.758;2023-03-05T05:28:48;2.37;;;1.90;;
5650;SDS011;40241;52.684;9.758;2023-03-05T05:31:14;3.27;;;1.77;;
5650;SDS011;40241;52.684;9.758;2023-03-05T05:33:41;3.03;;;2.00;;
5650;SDS011;40241;52.684;9.758;2023-03-05T05:36:07;3.03;;;1.93;;
5650;SDS011;40241;52.684;9.758;2023-03-05T05:38:35;2.13;;;2.03;;
5650;SDS011;40241;52.684;9.758;2023-03-05T05:41:04;1.40;;;1.30;;
5650;SDS011;40241;52.684;9.758;2023-03-05T05:43:34;1.80;;;1.70;;
5650;SDS011;40241;52.684;9.758;2023-03-05T05:46:00;5.87;;;1.70;;
5650;SDS011;40241;52.684;9.758;2023-03-05T05:48:27;3.23;;;1.50;;
5650;SDS011;40241;52.684;9.758;2023-03-05T05:50:54;1.60;;;1.50;;
5650;SDS011;40241;52.684;9.758;2023-03-05T05:53:19;1.77;;;1.60;;
5650;SDS011;40241;52.684;9.758;2023-03-05T05:55:45;2.83;;;1.80;;
5650;SDS011;40241;52.684;9.758;2023-03-05T05:58:10;2.03;;;1.50;;
5650;SDS011;40241;52.684;9.758;2023-03-05T06:00:36;3.17;;;1.53;;
5650;SDS011;40241;52.684;9.758;2023-03-05T06:03:02;6.83;;;2.00;;
5650;SDS011;40241;52.684;9.758;2023-03-05T06:05:28;1.20;;;1.10;;
5650;SDS011;40241;52.684;9.758;2023-03-05T06:07:53;2.77;;;1.70;;
5650;SDS011;40241;52.684;9.758;2023-03-05T06:10:18;2.03;;;1.70;;
5650;SDS011;40241;52.684;9.758;2023-03-05T06:12:44;2.20;;;1.63;;
5650;SDS011;40241;52.684;9.758;2023-03-05T06:15:09;3.43;;;2.10;;
5650;SDS011;40241;52.684;9.758;2023-03-05T06:17:34;4.10;;;1.60;;
5650;SDS011;40241;52.684;9.758;2023-03-05T06:20:00;9.47;;;2.40;;
5650;SDS011;40241;52.684;9.758;2023-03-05T06:22:25;1.80;;;1.60;;
5650;SDS011;40241;52.684;9.758;2023-03-05T06:24:51;2.73;;;1.67;;
5650;SDS011;40241;52.684;9.758;2023-03-05T06:27:16;3.50;;;1.90;;
5650;SDS011;40241;52.684;9.758;2023-03-05T06:29:42;1.87;;;1.33;;
5650;SDS011;40241;52.684;9.758;2023-03-05T06:32:07;3.23;;;2.10;;
5650;SDS011;40241;52.684;9.758;2023-03-05T06:34:33;3.30;;;2.20;;
5650;SDS011;40241;52.684;9.758;2023-03-05T06:36:58;2.50;;;2.10;;
5650;SDS011;40241;52.684;9.758;2023-03-05T06:39:23;6.67;;;2.10;;
5650;SDS011;40241;52.684;9.758;2023-03-05T06:41:49;3.37;;;2.00;;
5650;SDS011;40241;52.684;9.758;2023-03-05T06:44:15;3.00;;;1.93;;
5650;SDS011;40241;52.684;9.758;2023-03-05T06:46:41;6.23;;;2.33;;
5650;SDS011;40241;52.684;9.758;2023-03-05T06:49:06;2.73;;;2.03;;
5650;SDS011;40241;52.684;9.758;2023-03-05T06:51:33;4.23;;;2.50;;
5650;SDS011;40241;52.684;9.758;2023-03-05T06:54:08;2.03;;;1.67;;
5650;SDS011;40241;52.684;9.758;2023-03-05T06:56:36;5.83;;;2.40;;
5650;SDS011;40241;52.684;9.758;2023-03-05T06:59:03;4.80;;;1.90;;
5650;SDS011;40241;52.684;9.758;2023-03-05T07:01:30;4.00;;;2.20;;
5650;SDS011;40241;52.684;9.758;2023-03-05T07:03:55;4.00;;;2.10;;
5650;SDS011;40241;52.684;9.758;2023-03-05T07:06:24;4.90;;;2.40;;
5650;SDS011;40241;52.684;9.758;2023-03-05T07:08:53;3.00;;;2.40;;
5650;SDS011;40241;52.684;9.758;2023-03-05T07:11:20;1.50;;;1.40;;
5650;SDS011;40241;52.684;9.758;2023-03-05T07:13:46;2.83;;;2.17;;
5650;SDS011;40241;52.684;9.758;2023-03-05T07:16:13;2.70;;;1.50;;
5650;SDS011;40241;52.684;9.758;2023-03-05T07:18:40;6.03;;;2.10;;
5650;SDS011;40241;52.684;9.758;2023-03-05T07:21:06;2.93;;;1.87;;
5650;SDS011;40241;52.684;9.758;2023-03-05T07:23:33;3.00;;;1.57;;
5650;SDS011;40241;52.684;9.758;2023-03-05T07:26:00;2.50;;;1.40;;
5650;SDS011;40241;52.684;9.758;2023-03-05T07:28:27;1.80;;;1.70;;
5650;SDS011;40241;52.684;9.758;2023-03-05T07:30:56;3.43;;;1.73;;
5650;SDS011;40241;52.684;9.758;2023-03-05T07:33:23;3.07;;;1.60;;
5650;SDS011;40241;52.684;9.758;2023-03-05T07:35:49;1.50;;;1.40;;
5650;SDS011;40241;52.684;9.758;2023-03-05T07:38:14;3.20;;;2.00;;
5650;SDS011;40241;52.684;9.758;2023-03-05T07:40:40;1.70;;;1.60;;
5650;SDS011;40241;52.684;9.758;2023-03-05T07:43:05;1.60;;;1.50;;
5650;SDS011;40241;52.684;9.758;2023-03-05T07:45:31;2.50;;;1.80;;
5650;SDS011;40241;52.684;9.758;2023-03-05T07:47:56;4.40;;;2.13;;
5650;SDS011;40241;52.684;9.758;2023-03-05T07:50:21;2.50;;;1.83;;
5650;SDS011;40241;52.684;9.758;2023-03-05T07:52:47;3.63;;;2.00;;
5650;SDS011;40241;52.684;9.758;2023-03-05T07:55:12;3.00;;;1.93;;
5650;SDS011;40241;52.684;9.758;2023-03-05T07:57:38;7.50;;;1.90;;
5650;SDS011;40241;52.684;9.758;2023-03-05T08:00:04;2.03;;;1.83;;
5650;SDS011;40241;52.684;9.758;2023-03-05T08:02:30;3.40;;;2.07;;
5650;SDS011;40241;52.684;9.758;2023-03-05T08:04:56;2.93;;;1.90;;
5650;SDS011;40241;52.684;9.758;2023-03-05T08:07:21;1.70;;;1.60;;
5650;SDS011;40241;52.684;9.758;2023-03-05T08:09:46;6.93;;;2.20;;
5650;SDS011;40241;52.684;9.758;2023-03-05T08:12:12;7.43;;;1.83;;
5650;SDS011;40241;52.684;9.758;2023-03-05T08:14:37;2.20;;;2.03;;
5650;SDS011;40241;52.684;9.758;2023-03-05T08:17:03;2.10;;;1.60;;
5650;SDS011;40241;52.684;9.758;2023-03-05T08:19:29;1.40;;;1.30;;
5650;SDS011;40241;52.684;9.758;2023-03-05T08:21:55;2.20;;;1.70;;
5650;SDS011;40241;52.684;9.758;2023-03-05T08:24:21;2.07;;;1.10;;
5650;SDS011;40241;52.684;9.758;2023-03-05T08:26:53;2.27;;;1.53;;
5650;SDS011;40241;52.684;9.758;2023-03-05T08:29:18;1.33;;;1.23;;
5650;SDS011;40241;52.684;9.758;2023-03-05T08:31:45;1.50;;;1.27;;
5650;SDS011;40241;52.684;9.758;2023-03-05T08:34:11;2.20;;;1.33;;
5650;SDS011;40241;52.684;9.758;2023-03-05T08:36:36;5.03;;;2.50;;
5650;SDS011;40241;52.684;9.758;2023-03-05T08:39:02;6.90;;;3.77;;
5650;SDS011;40241;52.684;9.758;2023-03-05T08:41:30;7.70;;;3.40;;
5650;SDS011;40241;52.684;9.758;2023-03-05T08:43:57;5.60;;;3.57;;
5650;SDS011;40241;52.684;9.758;2023-03-05T08:46:22;2.50;;;2.30;;
5650;SDS011;40241;52.684;9.758;2023-03-05T08:48:48;5.30;;;2.63;;
5650;SDS011;40241;52.684;9.758;2023-03-05T08:51:18;2.30;;;2.10;;
5650;SDS011;40241;52.684;9.758;2023-03-05T08:53:47;2.93;;;1.90;;
5650;SDS011;40241;52.684;9.758;2023-03-05T08:56:13;1.63;;;1.53;;
5650;SDS011;40241;52.684;9.758;2023-03-05T08:58:39;4.90;;;1.50;;
5650;SDS011;40241;52.684;9.758;2023-03-05T09:01:04;2.47;;;1.57;;
5650;SDS011;40241;52.684;9.758;2023-03-05T09:03:30;2.83;;;1.50;;
5650;SDS011;40241;52.684;9.758;2023-03-05T09:05:59;2.10;;;1.40;;
5650;SDS011;40241;52.684;9.758;2023-03-05T09:08:26;1.93;;;1.50;;
5650;SDS011;40241;52.684;9.758;2023-03-05T09:10:52;2.80;;;1.40;;
5650;SDS011;40241;52.684;9.758;2023-03-05T09:13:18;1.37;;;0.90;;
5650;SDS011;40241;52.684;9.758;2023-03-05T09:15:43;1.63;;;1.30;;
5650;SDS011;40241;52.684;9.758;2023-03-05T09:18:08;5.20;;;1.23;;
5650;SDS011;40241;52.684;9.758;2023-03-05T09:20:34;1.43;;;1.27;;
5650;SDS011;40241;52.684;9.758;2023-03-05T09:23:00;3.90;;;0.90;;
5650;SDS011;40241;52.684;9.758;2023-03-05T09:25:25;4.23;;;1.60;;
5650;SDS011;40241;52.684;9.758;2023-03-05T09:27:51;1.40;;;1.20;;
5650;SDS011;40241;52.684;9.758;2023-03-05T09:30:16;1.40;;;1.30;;
5650;SDS011;40241;52.684;9.758;2023-03-05T09:32:41;1.77;;;1.53;;
5650;SDS011;40241;52.684;9.758;2023-03-05T09:35:07;1.50;;;1.40;;
5650;SDS011;40241;52.684;9.758;2023-03-05T09:37:33;1.83;;;1.73;;
5650;SDS011;40241;52.684;9.758;2023-03-05T09:39:58;4.03;;;2.20;;
5650;SDS011;40241;52.684;9.758;2023-03-05T09:45:00;2.53;;;2.20;;
5650;SDS011;40241;52.684;9.758;2023-03-05T09:50:13;4.40;;;1.90;;
5650;SDS011;40241;52.684;9.758;2023-03-05T09:53:17;3.27;;;2.60;;
5650;SDS011;40241;52.684;9.758;2023-03-05T09:55:45;3.03;;;2.10;;
5650;SDS011;40241;52.684;9.758;2023-03-05T10:00:52;2.10;;;1.37;;
5650;SDS011;40241;52.684;9.758;2023-03-05T10:03:22;3.07;;;1.70;;
5650;SDS011;40241;52.684;9.758;2023-03-05T10:05:54;5.40;;;1.20;;
5650;SDS011;40241;52.684;9.758;2023-03-05T10:08:40;1.90;;;1.57;;
5650;SDS011;40241;52.684;9.758;2023-03-05T10:11:17;1.00;;;0.90;;
5650;SDS011;40241;52.684;9.758;2023-03-05T10:14:10;1.77;;;1.07;;
5650;SDS011;40241;52.684;9.758;2023-03-05T10:16:42;1.83;;;1.20;;
5650;SDS011;40241;52.684;9.758;2023-03-05T10:19:14;1.50;;;0.93;;
5650;SDS011;40241;52.684;9.758;2023-03-05T10:21:51;1.87;;;1.20;;
5650;SDS011;40241;52.684;9.758;2023-03-05T10:27:01;3.93;;;1.03;;
5650;SDS011;40241;52.684;9.758;2023-03-05T10:32:06;1.70;;;1.60;;
5650;SDS011;40241;52.684;9.758;2023-03-05T10:35:22;2.37;;;2.17;;
5650;SDS011;40241;52.684;9.758;2023-03-05T10:37:43;2.93;;;1.40;;
5650;SDS011;40241;52.684;9.758;2023-03-05T10:40:27;3.70;;;1.20;;
5650;SDS011;40241;52.684;9.758;2023-03-05T10:45:58;1.93;;;1.50;;
5650;SDS011;40241;52.684;9.758;2023-03-05T10:51:21;2.77;;;1.03;;
5650;SDS011;40241;52.684;9.758;2023-03-05T10:53:58;3.37;;;1.07;;
5650;SDS011;40241;52.684;9.758;2023-03-05T10:56:25;1.10;;;0.60;;
5650;SDS011;40241;52.684;9.758;2023-03-05T10:58:53;0.70;;;0.70;;
5650;SDS011;40241;52.684;9.758;2023-03-05T11:04:01;1.57;;;0.70;;
5650;SDS011;40241;52.684;9.758;2023-03-05T11:08:58;0.93;;;0.67;;
5650;SDS011;40241;52.684;9.758;2023-03-05T11:11:40;2.80;;;1.00;;
5650;SDS011;40241;52.684;9.758;2023-03-05T11:14:07;2.67;;;1.20;;
5650;SDS011;40241;52.684;9.758;2023-03-05T11:16:48;1.70;;;1.03;;
5650;SDS011;40241;52.684;9.758;2023-03-05T11:19:19;1.07;;;0.97;;
5650;SDS011;40241;52.684;9.758;2023-03-05T11:22:12;1.10;;;1.00;;
5650;SDS011;40241;52.684;9.758;2023-03-05T11:24:40;1.10;;;0.80;;
5650;SDS011;40241;52.684;9.758;2023-03-05T11:30:17;1.10;;;0.70;;
5650;SDS011;40241;52.684;9.758;2023-03-05T11:32:44;0.70;;;0.70;;
5650;SDS011;40241;52.684;9.758;2023-03-05T11:35:21;0.70;;;0.70;;
5650;SDS011;40241;52.684;9.758;2023-03-05T11:38:04;3.50;;;0.73;;
5650;SDS011;40241;52.684;9.758;2023-03-05T11:40:31;1.00;;;0.70;;
5650;SDS011;40241;52.684;9.758;2023-03-05T11:43:02;4.73;;;1.00;;
5650;SDS011;40241;52.684;9.758;2023-03-05T11:45:29;1.77;;;1.40;;
5650;SDS011;40241;52.684;9.758;2023-03-05T11:47:59;0.80;;;0.80;;
5650;SDS011;40241;52.684;9.758;2023-03-05T11:50:31;0.73;;;0.67;;
5650;SDS011;40241;52.684;9.758;2023-03-05T11:52:59;1.67;;;0.97;;
5650;SDS011;40241;52.684;9.758;2023-03-05T11:55:41;1.63;;;1.17;;
5650;SDS011;40241;52.684;9.758;2023-03-05T12:01:00;1.07;;;0.67;;
5650;SDS011;40241;52.684;9.758;2023-03-05T12:03:34;1.33;;;0.80;;
5650;SDS011;40241;52.684;9.758;2023-03-05T12:08:37;2.53;;;1.00;;
5650;SDS011;40241;52.684;9.758;2023-03-05T12:11:17;1.20;;;1.00;;
5650;SDS011;40241;52.684;9.758;2023-03-05T12:13:46;1.67;;;1.07;;
5650;SDS011;40241;52.684;9.758;2023-03-05T12:16:18;1.30;;;1.20;;
5650;SDS011;40241;52.684;9.758;2023-03-05T12:21:36;2.80;;;1.57;;
5650;SDS011;40241;52.684;9.758;2023-03-05T12:26:53;1.20;;;1.10;;
5650;SDS011;40241;52.684;9.758;2023-03-05T12:32:50;1.30;;;1.10;;
5650;SDS011;40241;52.684;9.758;2023-03-05T12:40:25;1.20;;;1.10;;
5650;SDS011;40241;52.684;9.758;2023-03-05T12:42:56;1.20;;;1.10;;
5650;SDS011;40241;52.684;9.758;2023-03-05T12:45:30;2.17;;;1.00;;
5650;SDS011;40241;52.684;9.758;2023-03-05T12:52:52;0.70;;;0.70;;
5650;SDS011;40241;52.684;9.758;2023-03-05T12:57:53;1.63;;;0.63;;
5650;SDS011;40241;52.684;9.758;2023-03-05T13:03:29;2.10;;;0.97;;
5650;SDS011;40241;52.684;9.758;2023-03-05T13:05:58;1.60;;;1.10;;
5650;SDS011;40241;52.684;9.758;2023-03-05T13:11:03;0.70;;;0.60;;
5650;SDS011;40241;52.684;9.758;2023-03-05T13:13:33;0.80;;;0.70;;
5650;SDS011;40241;52.684;9.758;2023-03-05T13:16:02;2.20;;;0.87;;
5650;SDS011;40241;52.684;9.758;2023-03-05T13:18:28;0.70;;;0.60;;
5650;SDS011;40241;52.684;9.758;2023-03-05T13:21:29;1.27;;;0.87;;
5650;SDS011;40241;52.684;9.758;2023-03-05T13:23:56;0.83;;;0.80;;
5650;SDS011;40241;52.684;9.758;2023-03-05T13:26:31;2.27;;;0.93;;
5650;SDS011;40241;52.684;9.758;2023-03-05T13:31:29;0.70;;;0.70;;
5650;SDS011;40241;52.684;9.758;2023-03-05T13:33:55;0.90;;;0.80;;
5650;SDS011;40241;52.684;9.758;2023-03-05T13:36:24;0.87;;;0.70;;
5650;SDS011;40241;52.684;9.758;2023-03-05T13:38:51;1.03;;;0.60;;
5650;SDS011;40241;52.684;9.758;2023-03-05T13:41:18;2.50;;;0.90;;
5650;SDS011;40241;52.684;9.758;2023-03-05T13:46:22;2.20;;;0.90;;
5650;SDS011;40241;52.684;9.758;2023-03-05T13:48:52;1.03;;;0.93;;
5650;SDS011;40241;52.684;9.758;2023-03-05T13:51:17;2.33;;;1.50;;
5650;SDS011;40241;52.684;9.758;2023-03-05T13:53:43;2.50;;;1.00;;
5650;SDS011;40241;52.684;9.758;2023-03-05T13:56:12;2.40;;;1.53;;
5650;SDS011;40241;52.684;9.758;2023-03-05T13:58:41;1.90;;;0.87;;
5650;SDS011;40241;52.684;9.758;2023-03-05T14:03:52;1.10;;;0.80;;
5650;SDS011;40241;52.684;9.758;2023-03-05T14:06:21;0.60;;;0.60;;
5650;SDS011;40241;52.684;9.758;2023-03-05T14:09:15;1.17;;;0.60;;
5650;SDS011;40241;52.684;9.758;2023-03-05T14:11:52;0.90;;;0.70;;
5650;SDS011;40241;52.684;9.758;2023-03-05T14:14:21;1.77;;;1.40;;
5650;SDS011;40241;52.684;9.758;2023-03-05T14:16:48;2.00;;;0.93;;
5650;SDS011;40241;52.684;9.758;2023-03-05T14:19:30;2.60;;;1.10;;
5650;SDS011;40241;52.684;9.758;2023-03-05T14:21:58;1.10;;;1.00;;
5650;SDS011;40241;52.684;9.758;2023-03-05T14:24:24;2.10;;;1.70;;
5650;SDS011;40241;52.684;9.758;2023-03-05T14:27:00;2.80;;;2.10;;
5650;SDS011;40241;52.684;9.758;2023-03-05T14:29:31;3.77;;;2.50;;
5650;SDS011;40241;52.684;9.758;2023-03-05T14:32:04;3.33;;;1.80;;
5650;SDS011;40241;52.684;9.758;2023-03-05T14:34:36;2.67;;;1.40;;
5650;SDS011;40241;52.684;9.758;2023-03-05T14:37:05;2.87;;;1.40;;
5650;SDS011;40241;52.684;9.758;2023-03-05T14:39:44;4.10;;;0.90;;
5650;SDS011;40241;52.684;9.758;2023-03-05T14:42:48;2.20;;;0.80;;
5650;SDS011;40241;52.684;9.758;2023-03-05T14:45:16;1.17;;;0.60;;
5650;SDS011;40241;52.684;9.758;2023-03-05T14:47:44;1.30;;;0.87;;
5650;SDS011;40241;52.684;9.758;2023-03-05T14:50:17;3.63;;;0.63;;
5650;SDS011;40241;52.684;9.758;2023-03-05T14:52:45;1.50;;;1.03;;
5650;SDS011;40241;52.684;9.758;2023-03-05T14:55:13;0.80;;;0.70;;
5650;SDS011;40241;52.684;9.758;2023-03-05T14:57:41;1.80;;;1.50;;
5650;SDS011;40241;52.684;9.758;2023-03-05T15:00:16;2.13;;;2.00;;
5650;SDS011;40241;52.684;9.758;2023-03-05T15:02:45;1.13;;;1.07;;
5650;SDS011;40241;52.684;9.758;2023-03-05T15:05:10;0.90;;;0.90;;
5650;SDS011;40241;52.684;9.758;2023-03-05T15:07:36;1.00;;;1.00;;
5650;SDS011;40241;52.684;9.758;2023-03-05T15:10:02;0.57;;;0.57;;
5650;SDS011;40241;52.684;9.758;2023-03-05T15:12:28;4.90;;;0.93;;
5650;SDS011;40241;52.684;9.758;2023-03-05T15:14:54;1.47;;;0.50;;
5650;SDS011;40241;52.684;9.758;2023-03-05T15:17:42;2.10;;;1.17;;
5650;SDS011;40241;52.684;9.758;2023-03-05T15:20:24;1.30;;;1.20;;
5650;SDS011;40241;52.684;9.758;2023-03-05T15:22:52;2.57;;;1.50;;
5650;SDS011;40241;52.684;9.758;2023-03-05T15:25:19;2.13;;;1.37;;
5650;SDS011;40241;52.684;9.758;2023-03-05T15:27:46;1.60;;;1.27;;
5650;SDS011;40241;52.684;9.758;2023-03-05T15:30:22;1.27;;;1.17;;
5650;SDS011;40241;52.684;9.758;2023-03-05T15:32:51;0.90;;;0.90;;
5650;SDS011;40241;52.684;9.758;2023-03-05T15:35:17;1.63;;;1.50;;
5650;SDS011;40241;52.684;9.758;2023-03-05T15:37:43;1.23;;;1.13;;
5650;SDS011;40241;52.684;9.758;2023-03-05T15:40:08;0.80;;;0.80;;
5650;SDS011;40241;52.684;9.758;2023-03-05T15:42:34;0.70;;;0.70;;
5650;SDS011;40241;52.684;9.758;2023-03-05T15:44:59;0.80;;;0.80;;
5650;SDS011;40241;52.684;9.758;2023-03-05T15:47:25;1.60;;;1.50;;
5650;SDS011;40241;52.684;9.758;2023-03-05T15:49:50;2.60;;;1.70;;
5650;SDS011;40241;52.684;9.758;2023-03-05T15:52:15;3.30;;;2.33;;
5650;SDS011;40241;52.684;9.758;2023-03-05T15:54:41;1.70;;;1.60;;
5650;SDS011;40241;52.684;9.758;2023-03-05T15:57:07;1.17;;;1.10;;
5650;SDS011;40241;52.684;9.758;2023-03-05T15:59:34;1.00;;;1.00;;
5650;SDS011;40241;52.684;9.758;2023-03-05T16:02:00;1.30;;;1.20;;
5650;SDS011;40241;52.684;9.758;2023-03-05T16:04:26;0.90;;;0.90;;
5650;SDS011;40241;52.684;9.758;2023-03-05T16:06:53;1.00;;;0.90;;
5650;SDS011;40241;52.684;9.758;2023-03-05T16:09:19;0.60;;;0.60;;
5650;SDS011;40241;52.684;9.758;2023-03-05T16:11:46;0.90;;;0.90;;
5650;SDS011;40241;52.684;9.758;2023-03-05T16:14:16;1.47;;;1.37;;
5650;SDS011;40241;52.684;9.758;2023-03-05T16:16:46;1.10;;;1.00;;
5650;SDS011;40241;52.684;9.758;2023-03-05T16:19:12;1.90;;;1.80;;